Time;durP1;ratioP1;P1;durP2;ratioP2;P2;SDS_P1;SDS_P2;PMS_P1;PMS_P2;Temp;Humidity;BMP_temperature;BMP_pressure;BME280_temperature;BME280_humidity;BME280_pressure;Samples;Min_cycle;Max_cycle;Signal;HPM_P1;HPM_P2
2023/04/21 00:01:59;;;;;;;;;;;;;;;;;;6234134;28;20048;-79
2023/04/21 00:05:01;;;;;;;46.90;19.42;;;;;;;;;;6237415;28;19925;-79
2023/04/21 00:08:03;;;;;;;44.67;20.45;;;;;;;;;;6249013;28;20056;-79
2023/04/21 00:11:06;;;;;;;46.47;19.73;;;;;;;;;;6234175;28;20037;-79
2023/04/21 00:14:07;;;;;;;43.70;19.05;;;;;;;;;;6235713;28;20747;-80
2023/04/21 00:17:09;;;;;;;51.30;21.05;;;;;;;;;;6230405;28;20045;-79
2023/04/21 00:20:11;;;;;;;48.47;20.75;;;;;;;;;;6244653;28;20109;-79
2023/04/21 00:23:13;;;;;;;47.72;20.17;;;;;;;;;;6239622;28;20050;-78
2023/04/21 00:26:15;;;;;;;52.28;20.73;;;;;;;;;;6237780;28;20041;-79
2023/04/21 00:29:18;;;;;;;49.78;20.40;;;;;;;;;;6233711;28;20076;-78
2023/04/21 00:32:21;;;;;;;48.92;20.88;;;;;;;;;;6232908;28;20103;-79
2023/04/21 00:35:24;;;;;;;54.05;22.88;;;;;;;;;;6250768;28;20057;-78
2023/04/21 00:38:28;;;;;;;55.55;22.27;;;;;;;;;;6234368;28;20132;-79
2023/04/21 00:41:30;;;;;;;53.28;21.95;;;;;;;;;;6233865;28;20057;-79
2023/04/21 00:44:31;;;;;;;59.17;21.70;;;;;;;;;;6224801;28;20124;-79
2023/04/21 00:47:33;;;;;;;50.28;21.40;;;;;;;;;;6236174;28;20130;-79
2023/04/21 00:50:35;;;;;;;60.10;22.50;;;;;;;;;;6256830;28;20418;-79
2023/04/21 00:53:36;;;;;;;54.30;22.75;;;;;;;;;;6229311;28;20045;-79
2023/04/21 00:56:40;;;;;;;52.45;22.38;;;;;;;;;;6241665;28;20845;-79
2023/04/21 00:59:42;;;;;;;58.38;23.98;;;;;;;;;;6257081;28;20053;-79
2023/04/21 01:02:44;;;;;;;60.65;22.30;;;;;;;;;;6236326;28;20053;-79
2023/04/21 01:05:48;;;;;;;59.72;22.95;;;;;;;;;;6257430;28;20037;-79
2023/04/21 01:08:51;;;;;;;53.63;22.33;;;;;;;;;;6236579;28;20103;-79
2023/04/21 01:12:03;;;;;;;54.53;23.00;;;;;;;;;;6241489;28;20041;-80
2023/04/21 01:15:08;;;;;;;51.95;21.88;;;;;;;;;;6232514;28;20084;-79
2023/04/21 01:18:11;;;;;;;58.63;22.35;;;;;;;;;;6238924;28;20107;-79
2023/04/21 01:21:15;;;;;;;55.05;22.00;;;;;;;;;;6240048;28;20053;-79
2023/04/21 01:24:16;;;;;;;53.53;21.70;;;;;;;;;;6253911;28;20037;-79
2023/04/21 01:27:20;;;;;;;55.13;21.83;;;;;;;;;;6253527;28;20538;-78
2023/04/21 01:30:21;;;;;;;54.92;22.70;;;;;;;;;;6238006;28;20041;-80
2023/04/21 01:33:23;;;;;;;52.90;21.33;;;;;;;;;;6240290;28;20132;-79
2023/04/21 01:36:25;;;;;;;56.40;22.83;;;;;;;;;;6237707;28;20053;-79
2023/04/21 01:39:27;;;;;;;55.72;22.20;;;;;;;;;;6248135;28;20574;-79
2023/04/21 01:42:29;;;;;;;51.35;21.45;;;;;;;;;;6234352;28;20057;-79
2023/04/21 01:45:32;;;;;;;56.70;22.52;;;;;;;;;;6234042;28;20052;-79
2023/04/21 01:48:36;;;;;;;53.22;22.02;;;;;;;;;;6233796;28;20105;-79
2023/04/21 01:51:39;;;;;;;61.47;23.65;;;;;;;;;;6249504;28;20503;-79
2023/04/21 01:54:41;;;;;;;58.60;22.88;;;;;;;;;;6225229;28;20041;-78
2023/04/21 01:57:43;;;;;;;62.38;22.80;;;;;;;;;;6235719;28;20062;-79
2023/04/21 02:00:45;;;;;;;54.75;21.05;;;;;;;;;;6251773;28;20041;-79
2023/04/21 02:03:46;;;;;;;54.30;22.50;;;;;;;;;;6236219;28;20057;-79
2023/04/21 02:06:49;;;;;;;53.53;23.00;;;;;;;;;;6210596;28;20041;-79
2023/04/21 02:09:50;;;;;;;51.38;21.77;;;;;;;;;;6238494;28;20041;-79
2023/04/21 02:12:52;;;;;;;56.92;23.63;;;;;;;;;;6235961;28;20044;-79
2023/04/21 02:15:54;;;;;;;52.58;22.23;;;;;;;;;;6253289;28;20207;-78
2023/04/21 02:19:12;;;;;;;52.65;22.67;;;;;;;;;;6235878;28;20080;-78
2023/04/21 02:22:14;;;;;;;55.78;22.33;;;;;;;;;;6252151;28;20205;-79
2023/04/21 02:25:16;;;;;;;61.85;23.70;;;;;;;;;;6217531;28;20167;-79
2023/04/21 02:28:18;;;;;;;56.03;22.95;;;;;;;;;;6217996;28;20059;-79
2023/04/21 02:31:21;;;;;;;56.33;23.60;;;;;;;;;;6253893;28;20050;-79
2023/04/21 02:34:23;;;;;;;56.00;21.67;;;;;;;;;;6248900;28;20056;-79
2023/04/21 02:37:25;;;;;;;54.10;22.27;;;;;;;;;;6231626;28;20716;-78
2023/04/21 02:40:27;;;;;;;55.47;22.73;;;;;;;;;;6257856;28;20443;-77
2023/04/21 02:43:28;;;;;;;51.08;22.05;;;;;;;;;;6238685;28;20048;-79
2023/04/21 02:46:30;;;;;;;57.92;22.52;;;;;;;;;;6237030;28;20175;-79
2023/04/21 02:49:32;;;;;;;57.63;23.77;;;;;;;;;;6237492;28;20049;-79
2023/04/21 02:52:36;;;;;;;59.65;24.20;;;;;;;;;;6235239;28;20100;-79
2023/04/21 02:55:38;;;;;;;55.47;23.17;;;;;;;;;;6222344;28;20048;-79
2023/04/21 02:58:40;;;;;;;59.28;24.88;;;;;;;;;;6243690;28;20045;-79
2023/04/21 03:01:41;;;;;;;57.72;23.85;;;;;;;;;;6238007;28;20045;-79
2023/04/21 03:04:43;;;;;;;56.30;22.67;;;;;;;;;;6220238;28;20107;-79
2023/04/21 03:07:45;;;;;;;59.88;23.80;;;;;;;;;;6249389;28;20516;-79
2023/04/21 03:10:46;;;;;;;62.08;24.08;;;;;;;;;;6231516;28;20128;-79
2023/04/21 03:13:48;;;;;;;59.25;25.23;;;;;;;;;;6235531;28;20046;-79
2023/04/21 03:16:50;;;;;;;61.72;23.85;;;;;;;;;;6220559;28;20041;-79
2023/04/21 03:19:51;;;;;;;64.43;25.10;;;;;;;;;;6226785;28;20510;-79
2023/04/21 03:22:54;;;;;;;67.40;25.17;;;;;;;;;;6214960;28;20632;-79
2023/04/21 03:25:56;;;;;;;62.50;23.15;;;;;;;;;;6216983;28;20049;-78
2023/04/21 03:28:58;;;;;;;55.72;22.85;;;;;;;;;;6231829;28;20703;-79
2023/04/21 03:32:00;;;;;;;60.15;23.70;;;;;;;;;;6234338;28;20052;-78
2023/04/21 03:35:02;;;;;;;63.53;24.23;;;;;;;;;;6233383;28;20037;-79
2023/04/21 03:38:04;;;;;;;65.55;23.38;;;;;;;;;;6230585;28;20049;-79
2023/04/21 03:41:05;;;;;;;62.72;23.33;;;;;;;;;;6228419;28;20124;-78
2023/04/21 03:44:07;;;;;;;56.08;23.70;;;;;;;;;;6229497;28;20056;-78
2023/04/21 03:47:08;;;;;;;60.95;23.70;;;;;;;;;;6251196;28;20541;-79
2023/04/21 03:50:10;;;;;;;62.65;23.55;;;;;;;;;;6236222;28;20073;-79
2023/04/21 03:53:12;;;;;;;62.03;23.50;;;;;;;;;;6235693;28;20068;-79
2023/04/21 03:56:13;;;;;;;67.53;25.58;;;;;;;;;;6236445;28;20041;-78
2023/04/21 03:59:15;;;;;;;60.50;23.85;;;;;;;;;;6233522;28;20705;-79
2023/04/21 04:02:17;;;;;;;62.58;25.45;;;;;;;;;;6234138;28;20046;-79
2023/04/21 04:05:19;;;;;;;60.97;24.33;;;;;;;;;;6232938;28;20053;-78
2023/04/21 04:08:20;;;;;;;66.45;25.65;;;;;;;;;;6234414;28;20049;-78
2023/04/21 04:11:22;;;;;;;61.17;24.92;;;;;;;;;;6226612;28;20049;-78
2023/04/21 04:14:24;;;;;;;60.45;24.85;;;;;;;;;;6250058;28;20053;-78
2023/04/21 04:17:25;;;;;;;62.55;23.92;;;;;;;;;;6237836;28;20496;-78
2023/04/21 04:20:27;;;;;;;62.08;24.60;;;;;;;;;;6234227;28;20584;-79
2023/04/21 04:23:29;;;;;;;62.47;24.67;;;;;;;;;;6239374;28;20513;-79
2023/04/21 04:26:32;;;;;;;69.43;26.13;;;;;;;;;;6255348;28;20729;-79
2023/04/21 04:29:35;;;;;;;65.03;26.17;;;;;;;;;;6242443;28;20065;-79
2023/04/21 04:32:38;;;;;;;63.72;23.42;;;;;;;;;;6241901;28;20529;-79
2023/04/21 04:35:39;;;;;;;;;;;;;;;;;;6238453;28;20045;-79
2023/04/21 04:38:41;;;;;;;70.72;24.27;;;;;;;;;;6243465;28;19932;-78
2023/04/21 04:41:43;;;;;;;67.65;25.55;;;;;;;;;;6240893;28;20041;-79
2023/04/21 04:44:45;;;;;;;66.15;24.20;;;;;;;;;;6236145;28;20104;-78
2023/04/21 04:47:48;;;;;;;61.55;24.25;;;;;;;;;;6240372;28;20510;-77
2023/04/21 04:50:50;;;;;;;71.32;26.80;;;;;;;;;;6234995;28;20048;-78
2023/04/21 04:53:52;;;;;;;73.63;27.30;;;;;;;;;;6237528;28;20045;-78
2023/04/21 04:56:54;;;;;;;76.97;27.63;;;;;;;;;;6237509;28;20087;-78
2023/04/21 04:59:56;;;;;;;64.75;25.40;;;;;;;;;;6235799;28;20052;-79
2023/04/21 05:02:58;;;;;;;66.65;26.13;;;;;;;;;;6235563;28;20042;-78
2023/04/21 05:06:01;;;;;;;62.08;23.92;;;;;;;;;;6234695;28;20534;-79
2023/04/21 05:09:05;;;;;;;64.15;25.08;;;;;;;;;;6252303;28;20057;-78
2023/04/21 05:12:07;;;;;;;64.93;27.05;;;;;;;;;;6230235;28;20066;-78
2023/04/21 05:15:10;;;;;;;61.28;26.23;;;;;;;;;;6244077;28;20605;-78
2023/04/21 05:18:11;;;;;;;64.67;25.90;;;;;;;;;;6238166;28;20061;-78
2023/04/21 05:21:13;;;;;;;58.22;25.80;;;;;;;;;;6236845;28;20467;-78
2023/04/21 05:24:15;;;;;;;60.80;26.70;;;;;;;;;;6215328;28;20076;-78
2023/04/21 05:27:17;;;;;;;63.45;24.77;;;;;;;;;;6239155;28;20385;-79
2023/04/21 05:30:19;;;;;;;63.20;25.33;;;;;;;;;;6227767;28;20499;-77
2023/04/21 05:33:20;;;;;;;59.72;24.50;;;;;;;;;;6249601;28;20136;-78
2023/04/21 05:36:23;;;;;;;58.50;24.52;;;;;;;;;;6233377;28;20068;-77
2023/04/21 05:39:28;;;;;;;58.35;23.58;;;;;;;;;;6251612;28;20128;-78
2023/04/21 05:42:30;;;;;;;60.30;23.77;;;;;;;;;;6240510;28;20091;-77
2023/04/21 05:45:32;;;;;;;56.30;24.55;;;;;;;;;;6251090;28;20108;-78
2023/04/21 05:48:34;;;;;;;55.35;23.27;;;;;;;;;;6238087;28;20071;-77
2023/04/21 05:51:36;;;;;;;60.10;24.25;;;;;;;;;;6247084;28;20058;-78
2023/04/21 05:54:39;;;;;;;57.05;24.90;;;;;;;;;;6231802;28;20041;-79
2023/04/21 05:57:41;;;;;;;;;;;;;;;;;;6235816;28;20052;-79
2023/04/21 06:00:43;;;;;;;58.22;22.35;;;;;;;;;;6220559;28;20059;-79
2023/04/21 06:03:47;;;;;;;54.78;23.77;;;;;;;;;;6248155;28;20179;-79
2023/04/21 06:06:49;;;;;;;53.95;23.67;;;;;;;;;;6236903;28;20045;-79
2023/04/21 06:09:51;;;;;;;54.75;23.70;;;;;;;;;;6248850;28;20116;-78
2023/04/21 06:12:53;;;;;;;53.58;22.85;;;;;;;;;;6230626;28;20049;-78
2023/04/21 06:15:54;;;;;;;55.10;22.77;;;;;;;;;;6235070;28;20069;-77
2023/04/21 06:18:57;;;;;;;52.50;22.40;;;;;;;;;;6217734;28;20049;-79
2023/04/21 06:21:59;;;;;;;51.45;21.73;;;;;;;;;;6242581;28;20131;-78
2023/04/21 06:25:01;;;;;;;58.45;23.02;;;;;;;;;;6219744;28;20061;-78
2023/04/21 06:28:02;;;;;;;56.08;23.02;;;;;;;;;;6224719;28;20188;-78
2023/04/21 06:31:04;;;;;;;55.67;24.90;;;;;;;;;;6227079;28;20136;-78
2023/04/21 06:34:09;;;;;;;58.00;24.65;;;;;;;;;;6230281;28;20048;-78
2023/04/21 06:37:11;;;;;;;52.05;23.95;;;;;;;;;;6232472;28;20132;-79
2023/04/21 06:40:14;;;;;;;51.78;22.13;;;;;;;;;;6234465;28;20064;-78
2023/04/21 06:43:16;;;;;;;46.15;20.10;;;;;;;;;;6233298;28;20053;-80
2023/04/21 06:46:18;;;;;;;51.22;23.60;;;;;;;;;;6242324;28;20053;-77
2023/04/21 06:49:20;;;;;;;51.10;22.27;;;;;;;;;;6207889;28;20058;-78
2023/04/21 06:52:22;;;;;;;49.72;21.88;;;;;;;;;;6213299;28;20069;-80
2023/04/21 06:55:24;;;;;;;50.58;22.52;;;;;;;;;;6199726;28;20079;-78
2023/04/21 06:58:25;;;;;;;53.30;22.67;;;;;;;;;;6239617;28;20415;-80
2023/04/21 07:01:27;;;;;;;52.88;23.40;;;;;;;;;;6218580;28;20491;-79
2023/04/21 07:04:30;;;;;;;48.67;21.00;;;;;;;;;;6245796;28;20045;-78
2023/04/21 07:07:33;;;;;;;44.45;20.38;;;;;;;;;;6230924;28;20037;-78
2023/04/21 07:10:34;;;;;;;47.05;22.00;;;;;;;;;;6235908;28;20049;-79
2023/04/21 07:13:36;;;;;;;45.83;19.92;;;;;;;;;;6229926;28;20144;-78
2023/04/21 07:16:38;;;;;;;46.58;20.52;;;;;;;;;;6238543;28;20128;-78
2023/04/21 07:19:40;;;;;;;45.50;21.60;;;;;;;;;;6231122;28;20534;-78
2023/04/21 07:22:41;;;;;;;49.55;21.35;;;;;;;;;;6230931;28;20057;-78
2023/04/21 07:25:43;;;;;;;41.80;19.60;;;;;;;;;;6214849;28;20119;-78
2023/04/21 07:28:45;;;;;;;44.67;20.83;;;;;;;;;;6233970;28;22028;-79
2023/04/21 07:31:47;;;;;;;45.88;22.23;;;;;;;;;;6232155;28;20132;-78
2023/04/21 07:34:49;;;;;;;41.88;20.63;;;;;;;;;;6253353;28;20179;-78
2023/04/21 07:37:51;;;;;;;43.58;20.15;;;;;;;;;;6234631;28;20065;-79
2023/04/21 07:40:52;;;;;;;42.28;20.13;;;;;;;;;;6247442;28;20088;-79
2023/04/21 07:43:54;;;;;;;46.35;20.55;;;;;;;;;;6234310;28;20122;-78
2023/04/21 07:46:56;;;;;;;43.03;21.00;;;;;;;;;;6237260;28;20132;-79
2023/04/21 07:49:57;;;;;;;37.50;18.85;;;;;;;;;;6234093;28;20069;-79
2023/04/21 07:53:00;;;;;;;44.45;20.17;;;;;;;;;;6242686;28;20049;-78
2023/04/21 07:56:02;;;;;;;41.35;19.67;;;;;;;;;;6228795;28;20046;-77
2023/04/21 07:59:04;;;;;;;40.63;19.17;;;;;;;;;;6232212;28;20049;-78
2023/04/21 08:02:07;;;;;;;42.08;20.67;;;;;;;;;;6228417;28;20120;-78
2023/04/21 08:05:09;;;;;;;45.05;20.00;;;;;;;;;;6236002;28;20450;-78
2023/04/21 08:08:11;;;;;;;36.63;19.17;;;;;;;;;;6234536;28;20098;-78
2023/04/21 08:11:13;;;;;;;40.13;19.27;;;;;;;;;;6254026;28;20046;-79
2023/04/21 08:14:15;;;;;;;41.45;19.80;;;;;;;;;;6235579;28;20045;-78
2023/04/21 08:17:16;;;;;;;40.92;19.73;;;;;;;;;;6214378;28;20075;-79
2023/04/21 08:20:18;;;;;;;41.38;20.08;;;;;;;;;;6238701;28;20525;-78
2023/04/21 08:23:20;;;;;;;38.65;19.63;;;;;;;;;;6248428;28;20088;-78
2023/04/21 08:26:24;;;;;;;38.15;19.42;;;;;;;;;;6242186;28;20052;-78
2023/04/21 08:29:25;;;;;;;39.22;19.98;;;;;;;;;;6252221;28;20115;-78
2023/04/21 08:32:27;;;;;;;42.45;20.13;;;;;;;;;;6233516;28;20060;-78
2023/04/21 08:35:29;;;;;;;38.10;18.65;;;;;;;;;;6238809;28;20513;-78
2023/04/21 08:38:31;;;;;;;39.30;18.83;;;;;;;;;;6239340;28;20046;-79
2023/04/21 08:41:33;;;;;;;36.35;17.83;;;;;;;;;;6238141;28;20166;-79
2023/04/21 08:44:35;;;;;;;37.47;19.37;;;;;;;;;;6256808;28;20179;-79
2023/04/21 08:47:40;;;;;;;40.92;20.52;;;;;;;;;;6236742;28;20060;-79
2023/04/21 08:50:44;;;;;;;37.30;19.10;;;;;;;;;;6237571;28;20411;-78
2023/04/21 08:53:46;;;;;;;38.13;20.00;;;;;;;;;;6238634;28;20456;-78
2023/04/21 08:56:48;;;;;;;36.25;18.48;;;;;;;;;;6237839;28;20049;-78
2023/04/21 08:59:50;;;;;;;34.63;17.63;;;;;;;;;;6238829;28;20114;-79
2023/04/21 09:03:02;;;;;;;34.17;17.85;;;;;;;;;;6238399;28;20057;-78
2023/04/21 09:06:11;;;;;;;34.05;17.58;;;;;;;;;;6230641;28;20045;-78
2023/04/21 09:09:14;;;;;;;31.33;16.77;;;;;;;;;;6257709;28;20749;-79
2023/04/21 09:12:16;;;;;;;30.52;16.27;;;;;;;;;;6236520;28;20090;-77
2023/04/21 09:15:20;;;;;;;31.08;16.13;;;;;;;;;;6231789;28;20038;-78
2023/04/21 09:18:24;;;;;;;32.75;18.13;;;;;;;;;;6239619;28;20237;-78
2023/04/21 09:21:30;;;;;;;31.85;17.00;;;;;;;;;;6237347;28;20100;-79
2023/04/21 09:24:33;;;;;;;32.40;16.35;;;;;;;;;;6212671;28;20056;-78
2023/04/21 09:27:36;;;;;;;33.05;17.10;;;;;;;;;;6236564;28;20621;-77
2023/04/21 09:30:40;;;;;;;28.48;15.52;;;;;;;;;;6247444;28;20042;-77
2023/04/21 09:33:52;;;;;;;29.48;15.85;;;;;;;;;;6234857;28;20044;-78
2023/04/21 09:37:06;;;;;;;30.77;16.92;;;;;;;;;;6230749;28;20447;-77
2023/04/21 09:40:13;;;;;;;31.20;15.80;;;;;;;;;;6233803;28;20127;-77
2023/04/21 09:43:15;;;;;;;28.88;15.55;;;;;;;;;;6233938;28;20045;-78
2023/04/21 09:46:20;;;;;;;27.70;16.08;;;;;;;;;;6235925;28;20061;-77
2023/04/21 09:49:23;;;;;;;28.38;15.95;;;;;;;;;;6228078;28;20049;-77
2023/04/21 09:52:27;;;;;;;26.92;15.27;;;;;;;;;;6234409;28;20048;-78
2023/04/21 09:55:30;;;;;;;28.88;15.50;;;;;;;;;;6247718;28;20037;-78
2023/04/21 09:58:40;;;;;;;28.38;16.88;;;;;;;;;;6233241;28;20115;-78
2023/04/21 10:01:44;;;;;;;30.42;16.30;;;;;;;;;;6240732;28;20041;-78
2023/04/21 10:04:46;;;;;;;30.80;16.55;;;;;;;;;;6246753;28;20121;-78
2023/04/21 10:07:49;;;;;;;28.73;15.75;;;;;;;;;;6232349;28;20045;-77
2023/04/21 10:10:53;;;;;;;31.05;15.85;;;;;;;;;;6239211;28;20045;-78
2023/04/21 10:13:55;;;;;;;26.92;15.85;;;;;;;;;;6237179;28;20049;-78
2023/04/21 10:17:07;;;;;;;42.92;18.52;;;;;;;;;;6240783;28;20048;-78
2023/04/21 10:20:14;;;;;;;29.23;15.88;;;;;;;;;;6235700;28;20051;-78
2023/04/21 10:23:44;;;;;;;30.42;15.77;;;;;;;;;;6232804;28;20057;-78
2023/04/21 10:26:49;;;;;;;31.58;15.27;;;;;;;;;;6236273;28;20539;-78
2023/04/21 10:29:54;;;;;;;31.23;16.80;;;;;;;;;;6233884;28;20525;-78
2023/04/21 10:33:04;;;;;;;28.40;16.25;;;;;;;;;;6237759;28;20104;-77
2023/04/21 10:36:10;;;;;;;30.75;15.57;;;;;;;;;;6244656;28;20064;-79
2023/04/21 10:39:34;;;;;;;27.30;15.30;;;;;;;;;;6249987;28;20530;-78
2023/04/21 10:42:36;;;;;;;32.10;16.00;;;;;;;;;;6235068;28;20043;-78
2023/04/21 10:45:38;;;;;;;27.48;15.35;;;;;;;;;;6235649;28;20211;-79
2023/04/21 10:48:40;;;;;;;28.48;16.35;;;;;;;;;;6233578;28;20050;-78
2023/04/21 10:51:57;;;;;;;29.10;15.70;;;;;;;;;;6240008;28;20056;-77
2023/04/21 10:54:59;;;;;;;30.50;16.83;;;;;;;;;;6240587;28;20144;-76
2023/04/21 10:58:03;;;;;;;25.70;14.52;;;;;;;;;;6239653;28;20064;-76
2023/04/21 11:01:05;;;;;;;24.33;14.40;;;;;;;;;;6228360;28;20130;-77
2023/04/21 11:04:13;;;;;;;27.67;14.73;;;;;;;;;;6229097;28;20049;-77
2023/04/21 11:07:20;;;;;;;27.05;14.85;;;;;;;;;;6230294;28;20511;-77
2023/04/21 11:10:22;;;;;;;24.23;14.13;;;;;;;;;;6228651;28;20435;-78
2023/04/21 11:13:26;;;;;;;24.85;14.25;;;;;;;;;;6229237;28;20053;-76
2023/04/21 11:16:28;;;;;;;26.70;14.40;;;;;;;;;;6228332;28;20517;-77
2023/04/21 11:19:32;;;;;;;22.05;13.35;;;;;;;;;;6233161;28;20045;-76
2023/04/21 11:22:36;;;;;;;23.00;13.02;;;;;;;;;;6232927;28;20495;-76
2023/04/21 11:25:38;;;;;;;24.33;13.85;;;;;;;;;;6226920;28;20051;-77
2023/04/21 11:28:40;;;;;;;26.42;14.38;;;;;;;;;;6238986;28;20045;-77
2023/04/21 11:31:45;;;;;;;24.13;13.93;;;;;;;;;;6246250;28;20042;-77
2023/04/21 11:34:47;;;;;;;23.40;13.00;;;;;;;;;;6231503;28;20049;-76
2023/04/21 11:37:50;;;;;;;21.83;13.63;;;;;;;;;;6225870;28;20045;-77
2023/04/21 11:40:53;;;;;;;21.15;12.35;;;;;;;;;;6231065;28;20409;-76
2023/04/21 11:43:55;;;;;;;21.10;13.35;;;;;;;;;;6208714;28;20530;-76
2023/04/21 11:46:57;;;;;;;20.27;11.80;;;;;;;;;;6233488;28;20107;-76
2023/04/21 11:50:01;;;;;;;19.20;12.07;;;;;;;;;;6229700;28;20057;-76
2023/04/21 11:53:03;;;;;;;20.75;12.48;;;;;;;;;;6212705;28;20060;-77
2023/04/21 11:56:05;;;;;;;17.50;11.35;;;;;;;;;;6244983;28;20564;-77
2023/04/21 11:59:15;;;;;;;20.47;11.87;;;;;;;;;;6216992;28;20041;-76
2023/04/21 12:02:22;;;;;;;16.80;10.50;;;;;;;;;;6233345;28;20168;-77
2023/04/21 12:05:32;;;;;;;17.88;11.27;;;;;;;;;;6225621;28;20034;-76
2023/04/21 12:08:34;;;;;;;19.27;11.98;;;;;;;;;;6223809;28;20048;-77
2023/04/21 12:11:36;;;;;;;16.95;11.05;;;;;;;;;;6234379;28;20128;-76
2023/04/21 12:14:37;;;;;;;17.90;11.07;;;;;;;;;;6233467;28;20060;-78
2023/04/21 12:17:49;;;;;;;15.18;10.90;;;;;;;;;;6231109;28;20527;-77
2023/04/21 12:20:52;;;;;;;18.02;10.95;;;;;;;;;;6231351;28;20049;-79
2023/04/21 12:23:53;;;;;;;17.35;10.75;;;;;;;;;;6231315;28;20533;-79
2023/04/21 12:26:55;;;;;;;18.23;11.20;;;;;;;;;;6236783;28;20045;-78
2023/04/21 12:29:57;;;;;;;16.23;10.32;;;;;;;;;;6240374;28;20041;-79
2023/04/21 12:32:59;;;;;;;17.10;11.13;;;;;;;;;;6233051;28;20041;-78
2023/04/21 12:36:01;;;;;;;19.92;11.27;;;;;;;;;;6215188;28;20463;-79
2023/04/21 12:39:03;;;;;;;17.25;11.10;;;;;;;;;;6233784;28;20041;-80
2023/04/21 12:42:05;;;;;;;18.00;10.85;;;;;;;;;;6233120;28;20526;-78
2023/04/21 12:45:07;;;;;;;19.20;11.53;;;;;;;;;;6239819;28;20047;-79
2023/04/21 12:48:08;;;;;;;15.82;10.25;;;;;;;;;;6235139;28;20092;-80
2023/04/21 12:51:11;;;;;;;18.15;10.80;;;;;;;;;;6232839;28;20045;-79
2023/04/21 12:54:13;;;;;;;16.45;10.32;;;;;;;;;;6227504;28;20049;-79
2023/04/21 12:57:15;;;;;;;16.85;10.27;;;;;;;;;;6256346;28;20430;-81
2023/04/21 13:00:17;;;;;;;16.40;10.67;;;;;;;;;;6231763;28;20084;-80
2023/04/21 13:03:19;;;;;;;17.58;10.40;;;;;;;;;;6259174;28;20102;-80
2023/04/21 13:06:21;;;;;;;16.27;11.17;;;;;;;;;;6256458;28;20507;-79
2023/04/21 13:09:22;;;;;;;18.42;10.85;;;;;;;;;;6238476;28;20068;-79
2023/04/21 13:12:24;;;;;;;16.02;10.95;;;;;;;;;;6258933;28;20255;-77
2023/04/21 13:15:26;;;;;;;23.33;12.35;;;;;;;;;;6256823;28;20579;-78
2023/04/21 13:18:27;;;;;;;25.67;14.35;;;;;;;;;;6275537;28;20112;-77
2023/04/21 13:21:31;;;;;;;16.75;11.15;;;;;;;;;;6267152;28;20053;-79
2023/04/21 13:24:33;;;;;;;18.42;11.80;;;;;;;;;;6237717;28;20117;-79
2023/04/21 13:27:37;;;;;;;16.23;11.75;;;;;;;;;;6236739;28;20103;-79
2023/04/21 13:30:38;;;;;;;15.55;11.05;;;;;;;;;;6238363;28;20537;-79
2023/04/21 13:33:40;;;;;;;15.57;10.63;;;;;;;;;;6247884;28;20110;-79
2023/04/21 13:36:42;;;;;;;14.18;9.65;;;;;;;;;;6234162;28;20041;-78
2023/04/21 13:39:44;;;;;;;15.55;10.30;;;;;;;;;;6237726;28;20048;-77
2023/04/21 13:42:45;;;;;;;15.27;11.25;;;;;;;;;;6237672;28;20064;-78
2023/04/21 13:45:49;;;;;;;16.08;10.88;;;;;;;;;;6237886;28;20045;-78
2023/04/21 13:48:51;;;;;;;15.73;11.60;;;;;;;;;;6238026;28;20049;-78
2023/04/21 13:51:52;;;;;;;15.80;12.27;;;;;;;;;;6239296;28;20046;-77
2023/04/21 13:54:54;;;;;;;15.05;10.38;;;;;;;;;;6235290;28;20112;-78
2023/04/21 13:57:58;;;;;;;14.18;10.10;;;;;;;;;;6238212;28;20041;-78
2023/04/21 14:01:00;;;;;;;15.70;10.30;;;;;;;;;;6234879;28;20543;-78
2023/04/21 14:04:02;;;;;;;14.77;9.82;;;;;;;;;;6234953;28;20092;-77
2023/04/21 14:07:05;;;;;;;16.23;9.45;;;;;;;;;;6206395;28;20530;-77
2023/04/21 14:10:07;;;;;;;;;;;;;;;;;;6244546;28;20057;-78
2023/04/21 14:13:08;;;;;;;12.77;9.00;;;;;;;;;;6213533;28;20199;-79
2023/04/21 14:16:27;;;;;;;14.27;9.07;;;;;;;;;;6230716;28;20057;-80
2023/04/21 14:19:31;;;;;;;10.93;8.07;;;;;;;;;;6235692;28;20075;-80
2023/04/21 14:22:33;;;;;;;11.82;8.40;;;;;;;;;;6234388;28;20047;-79
2023/04/21 14:25:35;;;;;;;14.35;8.60;;;;;;;;;;6236439;28;20511;-79
2023/04/21 14:28:36;;;;;;;10.83;8.67;;;;;;;;;;6235006;28;20037;-79
2023/04/21 14:31:38;;;;;;;9.55;7.75;;;;;;;;;;6238100;28;20487;-78
2023/04/21 14:34:40;;;;;;;11.38;7.68;;;;;;;;;;6236007;28;20084;-79
2023/04/21 14:37:41;;;;;;;10.98;8.13;;;;;;;;;;6230310;28;20042;-79
2023/04/21 14:40:43;;;;;;;9.75;7.53;;;;;;;;;;6240250;28;20429;-79
2023/04/21 14:43:45;;;;;;;9.43;7.63;;;;;;;;;;6232619;28;20111;-78
2023/04/21 14:46:50;;;;;;;8.73;7.15;;;;;;;;;;6232613;28;20072;-79
2023/04/21 14:50:09;;;;;;;16.75;12.10;;;;;;;;;;6228267;28;20125;-79
2023/04/21 14:53:11;;;;;;;9.93;7.95;;;;;;;;;;6246245;28;20054;-79
2023/04/21 14:56:13;;;;;;;9.10;7.28;;;;;;;;;;6247122;28;20068;-77
2023/04/21 14:59:15;;;;;;;8.85;7.50;;;;;;;;;;6268876;28;21638;-77
2023/04/21 15:02:18;;;;;;;9.35;7.78;;;;;;;;;;6244618;28;20124;-78
2023/04/21 15:05:20;;;;;;;10.35;7.82;;;;;;;;;;6236400;28;20649;-79
2023/04/21 15:08:22;;;;;;;10.73;7.20;;;;;;;;;;6250192;28;20057;-79
2023/04/21 15:11:24;;;;;;;10.45;7.18;;;;;;;;;;6232817;28;20053;-79
2023/04/21 15:14:25;;;;;;;12.55;6.47;;;;;;;;;;6235023;28;20049;-78
2023/04/21 15:17:27;;;;;;;7.20;6.40;;;;;;;;;;6231184;28;20435;-78
2023/04/21 15:20:29;;;;;;;7.28;6.53;;;;;;;;;;6232144;28;20038;-79
2023/04/21 15:23:45;;;;;;;8.57;6.90;;;;;;;;;;6216710;28;20052;-78
2023/04/21 15:26:47;;;;;;;10.32;7.13;;;;;;;;;;6234603;28;20045;-78
2023/04/21 15:29:48;;;;;;;8.75;6.90;;;;;;;;;;6235344;28;20041;-78
2023/04/21 15:32:50;;;;;;;16.92;9.48;;;;;;;;;;6231715;28;20084;-78
2023/04/21 15:35:52;;;;;;;9.27;7.00;;;;;;;;;;6231971;28;20045;-78
2023/04/21 15:38:53;;;;;;;11.90;7.60;;;;;;;;;;6229466;28;20128;-79
2023/04/21 15:41:55;;;;;;;9.48;7.20;;;;;;;;;;6204552;28;20084;-79
2023/04/21 15:44:57;;;;;;;11.40;7.70;;;;;;;;;;6197652;28;20380;-79
2023/04/21 15:47:58;;;;;;;15.13;10.07;;;;;;;;;;6234966;28;20125;-77
2023/04/21 15:51:00;;;;;;;13.20;8.77;;;;;;;;;;6228963;28;20041;-78
2023/04/21 15:54:03;;;;;;;10.18;7.72;;;;;;;;;;6231516;28;20076;-77
2023/04/21 15:57:05;;;;;;;;;;;;;;;;;;6206052;28;20045;-76
2023/04/21 16:00:09;;;;;;;10.02;6.38;;;;;;;;;;6222772;28;19957;-79
2023/04/21 16:03:11;;;;;;;7.88;6.40;;;;;;;;;;6231004;28;20049;-79
2023/04/21 16:06:13;;;;;;;8.80;6.82;;;;;;;;;;6232756;28;20051;-79
2023/04/21 16:09:16;;;;;;;7.88;6.50;;;;;;;;;;6233613;28;20045;-79
2023/04/21 16:12:17;;;;;;;9.70;6.90;;;;;;;;;;6232210;28;20045;-79
2023/04/21 16:15:21;;;;;;;9.15;6.80;;;;;;;;;;6227443;28;20037;-78
2023/04/21 16:18:26;;;;;;;9.85;7.13;;;;;;;;;;6238596;28;20128;-80
2023/04/21 16:21:28;;;;;;;9.95;7.10;;;;;;;;;;6238903;28;20045;-80
2023/04/21 16:24:30;;;;;;;8.82;6.68;;;;;;;;;;6233311;28;20151;-79
2023/04/21 16:27:32;;;;;;;10.10;7.90;;;;;;;;;;6238342;28;20515;-79
2023/04/21 16:30:34;;;;;;;13.95;8.40;;;;;;;;;;6238639;28;20061;-79
2023/04/21 16:33:36;;;;;;;10.05;7.40;;;;;;;;;;6238727;28;20040;-80
2023/04/21 16:36:38;;;;;;;10.07;7.10;;;;;;;;;;6235480;28;20160;-80
2023/04/21 16:39:40;;;;;;;10.73;7.47;;;;;;;;;;6236316;28;20045;-80
2023/04/21 16:42:42;;;;;;;8.85;6.72;;;;;;;;;;6237315;28;20045;-79
2023/04/21 16:45:43;;;;;;;7.88;6.47;;;;;;;;;;6242921;28;20459;-80
2023/04/21 16:48:45;;;;;;;8.18;6.57;;;;;;;;;;6256228;28;20041;-80
2023/04/21 16:51:47;;;;;;;11.10;7.28;;;;;;;;;;6234743;28;21238;-80
2023/04/21 16:54:48;;;;;;;10.50;6.95;;;;;;;;;;6240238;28;20522;-78
2023/04/21 16:57:50;;;;;;;9.90;8.32;;;;;;;;;;6239852;28;20136;-79
2023/04/21 17:00:52;;;;;;;10.77;7.37;;;;;;;;;;6250459;28;20076;-79
2023/04/21 17:03:54;;;;;;;9.60;6.65;;;;;;;;;;6236323;28;20045;-79
2023/04/21 17:06:55;;;;;;;14.00;7.32;;;;;;;;;;6237133;28;20179;-79
2023/04/21 17:09:57;;;;;;;10.23;7.07;;;;;;;;;;6225023;28;20128;-79
2023/04/21 17:12:59;;;;;;;9.17;6.90;;;;;;;;;;6233428;28;20056;-78
2023/04/21 17:16:01;;;;;;;8.52;6.63;;;;;;;;;;6230158;28;20175;-78
2023/04/21 17:19:03;;;;;;;8.60;6.95;;;;;;;;;;6224094;28;20085;-79
2023/04/21 17:22:05;;;;;;;8.85;6.85;;;;;;;;;;6227537;28;20045;-78
2023/04/21 17:25:07;;;;;;;10.43;6.55;;;;;;;;;;6231248;28;20112;-80
2023/04/21 17:28:09;;;;;;;;;;;;;;;;;;6234212;28;20136;-78
2023/04/21 17:31:11;;;;;;;10.55;7.15;;;;;;;;;;6235159;28;20004;-80
2023/04/21 17:34:16;;;;;;;15.27;9.43;;;;;;;;;;6248834;28;20420;-80
2023/04/21 17:37:18;;;;;;;10.13;6.93;;;;;;;;;;6236163;28;20076;-80
2023/04/21 17:40:21;;;;;;;10.18;7.05;;;;;;;;;;6252694;28;20042;-79
2023/04/21 17:43:23;;;;;;;11.27;6.95;;;;;;;;;;6231401;28;20051;-81
2023/04/21 17:46:25;;;;;;;10.57;8.25;;;;;;;;;;6235502;28;20054;-82
2023/04/21 17:49:27;;;;;;;12.98;9.98;;;;;;;;;;6237560;28;20128;-82
2023/04/21 17:52:29;;;;;;;11.57;8.45;;;;;;;;;;6233102;28;20037;-80